sensor_id;sensor_type;location;lat;lon;timestamp;temperature;humidity
31575;DHT22;18182;1.328;103.810;2023-03-23T00:00:52;28.60;99.90
31575;DHT22;18182;1.328;103.810;2023-03-23T00:03:20;28.60;99.90
31575;DHT22;18182;1.328;103.810;2023-03-23T00:05:47;28.70;99.90
31575;DHT22;18182;1.328;103.810;2023-03-23T00:08:16;28.70;99.90
31575;DHT22;18182;1.328;103.810;2023-03-23T00:10:42;28.70;99.90
31575;DHT22;18182;1.328;103.810;2023-03-23T00:13:08;28.70;99.90
31575;DHT22;18182;1.328;103.810;2023-03-23T00:15:36;28.80;99.90
31575;DHT22;18182;1.328;103.810;2023-03-23T00:18:06;28.80;99.90
31575;DHT22;18182;1.328;103.810;2023-03-23T00:20:33;28.90;99.90
31575;DHT22;18182;1.328;103.810;2023-03-23T00:23:06;28.90;99.90
31575;DHT22;18182;1.328;103.810;2023-03-23T00:25:33;28.90;99.90
31575;DHT22;18182;1.328;103.810;2023-03-23T00:27:59;29.00;99.90
31575;DHT22;18182;1.328;103.810;2023-03-23T00:30:26;29.00;99.90
31575;DHT22;18182;1.328;103.810;2023-03-23T00:32:52;29.00;99.90
31575;DHT22;18182;1.328;103.810;2023-03-23T00:35:18;29.00;99.90
31575;DHT22;18182;1.328;103.810;2023-03-23T00:37:45;29.00;99.90
31575;DHT22;18182;1.328;103.810;2023-03-23T00:40:11;29.10;99.90
31575;DHT22;18182;1.328;103.810;2023-03-23T00:42:37;29.10;99.90
31575;DHT22;18182;1.328;103.810;2023-03-23T00:45:04;29.10;99.90
31575;DHT22;18182;1.328;103.810;2023-03-23T00:47:36;29.20;99.90
31575;DHT22;18182;1.328;103.810;2023-03-23T00:50:03;29.10;99.90
31575;DHT22;18182;1.328;103.810;2023-03-23T00:52:30;29.10;99.90
31575;DHT22;18182;1.328;103.810;2023-03-23T00:54:57;29.20;99.90
31575;DHT22;18182;1.328;103.810;2023-03-23T00:57:23;29.20;99.90
31575;DHT22;18182;1.328;103.810;2023-03-23T00:59:52;29.30;99.90
31575;DHT22;18182;1.328;103.810;2023-03-23T01:02:18;29.40;99.90
31575;DHT22;18182;1.328;103.810;2023-03-23T01:04:45;29.50;99.90
31575;DHT22;18182;1.328;103.810;2023-03-23T01:07:12;29.50;99.90
31575;DHT22;18182;1.328;103.810;2023-03-23T01:09:38;29.60;99.90
31575;DHT22;18182;1.328;103.810;2023-03-23T01:12:05;29.70;99.90
31575;DHT22;18182;1.328;103.810;2023-03-23T01:14:31;29.60;99.90
31575;DHT22;18182;1.328;103.810;2023-03-23T01:16:57;29.70;99.90
31575;DHT22;18182;1.328;103.810;2023-03-23T01:19:23;29.70;99.90
31575;DHT22;18182;1.328;103.810;2023-03-23T01:21:50;29.80;99.90
31575;DHT22;18182;1.328;103.810;2023-03-23T01:24:16;29.80;99.90
31575;DHT22;18182;1.328;103.810;2023-03-23T01:26:42;29.90;99.90
31575;DHT22;18182;1.328;103.810;2023-03-23T01:29:08;29.80;99.90
31575;DHT22;18182;1.328;103.810;2023-03-23T01:31:35;29.80;99.90
31575;DHT22;18182;1.328;103.810;2023-03-23T01:34:02;29.80;99.90
31575;DHT22;18182;1.328;103.810;2023-03-23T01:36:29;29.70;99.90
31575;DHT22;18182;1.328;103.810;2023-03-23T01:39:00;29.80;99.90
31575;DHT22;18182;1.328;103.810;2023-03-23T01:41:29;29.90;99.90
31575;DHT22;18182;1.328;103.810;2023-03-23T01:46:53;29.80;99.90
31575;DHT22;18182;1.328;103.810;2023-03-23T01:49:40;29.90;99.90
31575;DHT22;18182;1.328;103.810;2023-03-23T01:52:08;29.90;99.90
31575;DHT22;18182;1.328;103.810;2023-03-23T01:54:35;29.80;99.90
31575;DHT22;18182;1.328;103.810;2023-03-23T01:57:03;29.80;99.90
31575;DHT22;18182;1.328;103.810;2023-03-23T01:59:30;29.80;99.90
31575;DHT22;18182;1.328;103.810;2023-03-23T02:01:57;29.90;99.90
31575;DHT22;18182;1.328;103.810;2023-03-23T02:04:23;30.00;99.90
31575;DHT22;18182;1.328;103.810;2023-03-23T02:06:53;30.00;99.90
31575;DHT22;18182;1.328;103.810;2023-03-23T02:09:21;30.00;99.90
31575;DHT22;18182;1.328;103.810;2023-03-23T02:11:48;29.90;99.90
31575;DHT22;18182;1.328;103.810;2023-03-23T02:14:15;29.90;99.90
31575;DHT22;18182;1.328;103.810;2023-03-23T02:19:28;30.00;99.90
31575;DHT22;18182;1.328;103.810;2023-03-23T02:26:55;29.80;99.90
31575;DHT22;18182;1.328;103.810;2023-03-23T02:37:03;30.10;99.90
31575;DHT22;18182;1.328;103.810;2023-03-23T02:39:34;30.20;99.90
31575;DHT22;18182;1.328;103.810;2023-03-23T02:42:04;30.30;99.90
31575;DHT22;18182;1.328;103.810;2023-03-23T02:44:31;30.20;99.90
31575;DHT22;18182;1.328;103.810;2023-03-23T02:46:58;30.30;99.90
31575;DHT22;18182;1.328;103.810;2023-03-23T02:49:28;30.30;99.90
31575;DHT22;18182;1.328;103.810;2023-03-23T02:51:58;30.40;99.90
31575;DHT22;18182;1.328;103.810;2023-03-23T02:54:25;30.40;99.90
31575;DHT22;18182;1.328;103.810;2023-03-23T02:56:52;30.40;99.90
31575;DHT22;18182;1.328;103.810;2023-03-23T02:59:20;30.30;99.90
31575;DHT22;18182;1.328;103.810;2023-03-23T03:01:57;30.40;99.90
31575;DHT22;18182;1.328;103.810;2023-03-23T03:04:26;30.40;99.90
31575;DHT22;18182;1.328;103.810;2023-03-23T03:09:38;30.60;99.90
31575;DHT22;18182;1.328;103.810;2023-03-23T03:12:14;30.60;99.90
31575;DHT22;18182;1.328;103.810;2023-03-23T03:14:55;30.60;99.90
31575;DHT22;18182;1.328;103.810;2023-03-23T03:17:24;30.60;99.90
31575;DHT22;18182;1.328;103.810;2023-03-23T03:19:55;30.50;99.90
31575;DHT22;18182;1.328;103.810;2023-03-23T03:22:23;30.60;99.90
31575;DHT22;18182;1.328;103.810;2023-03-23T03:24:49;30.80;99.90
31575;DHT22;18182;1.328;103.810;2023-03-23T03:27:17;30.90;99.90
31575;DHT22;18182;1.328;103.810;2023-03-23T03:29:47;30.90;99.90
31575;DHT22;18182;1.328;103.810;2023-03-23T03:32:17;30.80;99.90
31575;DHT22;18182;1.328;103.810;2023-03-23T03:34:44;30.80;99.90
31575;DHT22;18182;1.328;103.810;2023-03-23T03:37:10;30.80;99.90
31575;DHT22;18182;1.328;103.810;2023-03-23T03:39:37;30.80;99.90
31575;DHT22;18182;1.328;103.810;2023-03-23T03:42:04;30.60;99.90
31575;DHT22;18182;1.328;103.810;2023-03-23T03:44:32;30.70;99.90
31575;DHT22;18182;1.328;103.810;2023-03-23T03:46:58;30.80;99.90
31575;DHT22;18182;1.328;103.810;2023-03-23T03:49:24;30.90;99.90
31575;DHT22;18182;1.328;103.810;2023-03-23T03:51:51;31.00;99.90
31575;DHT22;18182;1.328;103.810;2023-03-23T03:54:17;31.00;99.90
31575;DHT22;18182;1.328;103.810;2023-03-23T03:56:43;31.10;99.90
31575;DHT22;18182;1.328;103.810;2023-03-23T03:59:11;31.20;99.90
31575;DHT22;18182;1.328;103.810;2023-03-23T04:01:38;31.30;99.90
31575;DHT22;18182;1.328;103.810;2023-03-23T04:04:04;31.40;99.90
31575;DHT22;18182;1.328;103.810;2023-03-23T04:06:33;31.50;99.90
31575;DHT22;18182;1.328;103.810;2023-03-23T04:09:02;31.70;99.90
31575;DHT22;18182;1.328;103.810;2023-03-23T04:11:31;31.80;99.90
31575;DHT22;18182;1.328;103.810;2023-03-23T04:13:57;31.90;99.90
31575;DHT22;18182;1.328;103.810;2023-03-23T04:16:24;31.90;99.90
31575;DHT22;18182;1.328;103.810;2023-03-23T04:18:51;31.80;99.90
31575;DHT22;18182;1.328;103.810;2023-03-23T04:21:18;31.90;99.90
31575;DHT22;18182;1.328;103.810;2023-03-23T04:23:44;32.00;99.90
31575;DHT22;18182;1.328;103.810;2023-03-23T04:26:11;32.10;99.90
31575;DHT22;18182;1.328;103.810;2023-03-23T04:28:39;32.10;99.90
31575;DHT22;18182;1.328;103.810;2023-03-23T04:31:06;32.10;99.90
31575;DHT22;18182;1.328;103.810;2023-03-23T04:33:34;32.00;99.90
31575;DHT22;18182;1.328;103.810;2023-03-23T04:36:02;32.00;99.90
31575;DHT22;18182;1.328;103.810;2023-03-23T04:38:29;32.10;99.90
31575;DHT22;18182;1.328;103.810;2023-03-23T04:40:58;32.20;99.90
31575;DHT22;18182;1.328;103.810;2023-03-23T04:43:27;32.30;99.90
31575;DHT22;18182;1.328;103.810;2023-03-23T04:45:54;32.40;99.90
31575;DHT22;18182;1.328;103.810;2023-03-23T04:48:26;32.50;99.90
31575;DHT22;18182;1.328;103.810;2023-03-23T04:50:53;32.50;99.90
31575;DHT22;18182;1.328;103.810;2023-03-23T04:53:19;32.50;99.90
31575;DHT22;18182;1.328;103.810;2023-03-23T04:55:46;32.30;99.90
31575;DHT22;18182;1.328;103.810;2023-03-23T04:58:13;32.30;99.90
31575;DHT22;18182;1.328;103.810;2023-03-23T05:00:39;32.30;99.90
31575;DHT22;18182;1.328;103.810;2023-03-23T05:03:06;32.30;99.90
31575;DHT22;18182;1.328;103.810;2023-03-23T05:05:33;32.10;99.90
31575;DHT22;18182;1.328;103.810;2023-03-23T05:08:00;32.00;99.90
31575;DHT22;18182;1.328;103.810;2023-03-23T05:10:26;32.10;99.90
31575;DHT22;18182;1.328;103.810;2023-03-23T05:12:53;32.20;99.90
31575;DHT22;18182;1.328;103.810;2023-03-23T05:15:19;32.40;99.90
31575;DHT22;18182;1.328;103.810;2023-03-23T05:17:45;32.50;99.90
31575;DHT22;18182;1.328;103.810;2023-03-23T05:20:12;32.50;99.90
31575;DHT22;18182;1.328;103.810;2023-03-23T05:22:40;32.40;99.90
31575;DHT22;18182;1.328;103.810;2023-03-23T05:25:06;32.30;99.90
31575;DHT22;18182;1.328;103.810;2023-03-23T05:27:37;32.40;99.90
31575;DHT22;18182;1.328;103.810;2023-03-23T05:30:04;32.60;99.90
31575;DHT22;18182;1.328;103.810;2023-03-23T05:32:31;32.60;99.90
31575;DHT22;18182;1.328;103.810;2023-03-23T05:34:57;32.60;99.90
31575;DHT22;18182;1.328;103.810;2023-03-23T05:37:25;32.40;99.90
31575;DHT22;18182;1.328;103.810;2023-03-23T05:39:52;32.30;99.90
31575;DHT22;18182;1.328;103.810;2023-03-23T05:42:22;32.30;99.90
31575;DHT22;18182;1.328;103.810;2023-03-23T05:44:49;32.30;99.90
31575;DHT22;18182;1.328;103.810;2023-03-23T05:47:15;32.30;99.90
31575;DHT22;18182;1.328;103.810;2023-03-23T05:49:41;32.30;99.90
31575;DHT22;18182;1.328;103.810;2023-03-23T05:52:08;32.30;99.90
31575;DHT22;18182;1.328;103.810;2023-03-23T05:54:34;32.10;99.90
31575;DHT22;18182;1.328;103.810;2023-03-23T05:57:01;32.00;99.90
31575;DHT22;18182;1.328;103.810;2023-03-23T05:59:27;31.90;99.90
31575;DHT22;18182;1.328;103.810;2023-03-23T06:01:54;31.70;99.90
31575;DHT22;18182;1.328;103.810;2023-03-23T06:04:20;31.60;99.90
31575;DHT22;18182;1.328;103.810;2023-03-23T06:06:50;31.70;99.90
31575;DHT22;18182;1.328;103.810;2023-03-23T06:09:20;31.80;99.90
31575;DHT22;18182;1.328;103.810;2023-03-23T06:11:46;31.90;99.90
31575;DHT22;18182;1.328;103.810;2023-03-23T06:14:15;32.10;99.90
31575;DHT22;18182;1.328;103.810;2023-03-23T06:16:43;32.40;99.90
31575;DHT22;18182;1.328;103.810;2023-03-23T06:19:09;32.40;99.90
31575;DHT22;18182;1.328;103.810;2023-03-23T06:21:36;32.50;99.90
31575;DHT22;18182;1.328;103.810;2023-03-23T06:24:03;32.60;99.90
31575;DHT22;18182;1.328;103.810;2023-03-23T06:26:31;32.70;99.90
31575;DHT22;18182;1.328;103.810;2023-03-23T06:28:58;32.80;99.90
31575;DHT22;18182;1.328;103.810;2023-03-23T06:31:24;32.80;99.90
31575;DHT22;18182;1.328;103.810;2023-03-23T06:33:52;32.60;99.90
31575;DHT22;18182;1.328;103.810;2023-03-23T06:36:18;32.50;99.90
31575;DHT22;18182;1.328;103.810;2023-03-23T06:38:44;32.50;99.90
31575;DHT22;18182;1.328;103.810;2023-03-23T06:41:11;32.50;99.90
31575;DHT22;18182;1.328;103.810;2023-03-23T06:43:37;32.50;99.90
31575;DHT22;18182;1.328;103.810;2023-03-23T06:46:05;32.40;99.90
31575;DHT22;18182;1.328;103.810;2023-03-23T06:48:31;32.20;99.90
31575;DHT22;18182;1.328;103.810;2023-03-23T06:50:58;32.10;99.90
31575;DHT22;18182;1.328;103.810;2023-03-23T06:53:24;32.10;99.90
31575;DHT22;18182;1.328;103.810;2023-03-23T06:55:50;32.10;99.90
31575;DHT22;18182;1.328;103.810;2023-03-23T06:58:16;32.10;99.90
31575;DHT22;18182;1.328;103.810;2023-03-23T07:00:43;32.20;99.90
31575;DHT22;18182;1.328;103.810;2023-03-23T07:03:09;32.10;99.90
31575;DHT22;18182;1.328;103.810;2023-03-23T07:05:36;32.00;99.90
31575;DHT22;18182;1.328;103.810;2023-03-23T07:08:02;32.10;99.90
31575;DHT22;18182;1.328;103.810;2023-03-23T07:10:29;32.10;99.90
31575;DHT22;18182;1.328;103.810;2023-03-23T07:12:55;32.20;99.90
31575;DHT22;18182;1.328;103.810;2023-03-23T07:15:21;32.40;99.90
31575;DHT22;18182;1.328;103.810;2023-03-23T07:17:47;32.40;99.90
31575;DHT22;18182;1.328;103.810;2023-03-23T07:20:13;32.40;99.90
31575;DHT22;18182;1.328;103.810;2023-03-23T07:22:40;32.40;99.90
31575;DHT22;18182;1.328;103.810;2023-03-23T07:25:06;32.30;99.90
31575;DHT22;18182;1.328;103.810;2023-03-23T07:27:33;32.20;99.90
31575;DHT22;18182;1.328;103.810;2023-03-23T07:29:59;32.10;99.90
31575;DHT22;18182;1.328;103.810;2023-03-23T07:32:25;32.10;99.90
31575;DHT22;18182;1.328;103.810;2023-03-23T07:34:51;32.10;99.90
31575;DHT22;18182;1.328;103.810;2023-03-23T07:37:17;32.10;99.90
31575;DHT22;18182;1.328;103.810;2023-03-23T07:39:44;32.10;99.90
31575;DHT22;18182;1.328;103.810;2023-03-23T07:42:10;32.20;99.90
31575;DHT22;18182;1.328;103.810;2023-03-23T07:44:36;32.20;99.90
31575;DHT22;18182;1.328;103.810;2023-03-23T07:47:03;32.10;99.90
31575;DHT22;18182;1.328;103.810;2023-03-23T07:49:29;32.20;99.90
31575;DHT22;18182;1.328;103.810;2023-03-23T07:51:56;32.30;99.90
31575;DHT22;18182;1.328;103.810;2023-03-23T07:54:23;32.40;99.90
31575;DHT22;18182;1.328;103.810;2023-03-23T07:56:49;32.50;99.90
31575;DHT22;18182;1.328;103.810;2023-03-23T07:59:16;32.40;99.90
31575;DHT22;18182;1.328;103.810;2023-03-23T08:01:42;32.40;99.90
31575;DHT22;18182;1.328;103.810;2023-03-23T08:04:08;32.30;99.90
31575;DHT22;18182;1.328;103.810;2023-03-23T08:06:35;32.20;99.90
31575;DHT22;18182;1.328;103.810;2023-03-23T08:09:01;32.10;99.90
31575;DHT22;18182;1.328;103.810;2023-03-23T08:11:32;32.10;99.90
31575;DHT22;18182;1.328;103.810;2023-03-23T08:13:58;32.10;99.90
31575;DHT22;18182;1.328;103.810;2023-03-23T08:16:24;32.10;99.90
31575;DHT22;18182;1.328;103.810;2023-03-23T08:18:51;32.20;99.90
31575;DHT22;18182;1.328;103.810;2023-03-23T08:21:17;32.30;99.90
31575;DHT22;18182;1.328;103.810;2023-03-23T08:23:43;32.40;99.90
31575;DHT22;18182;1.328;103.810;2023-03-23T08:26:10;32.50;99.90
31575;DHT22;18182;1.328;103.810;2023-03-23T08:28:37;32.50;99.90
31575;DHT22;18182;1.328;103.810;2023-03-23T08:31:09;32.50;99.90
31575;DHT22;18182;1.328;103.810;2023-03-23T08:33:36;32.50;99.90
31575;DHT22;18182;1.328;103.810;2023-03-23T08:36:03;32.30;99.90
31575;DHT22;18182;1.328;103.810;2023-03-23T08:38:29;32.30;99.90
31575;DHT22;18182;1.328;103.810;2023-03-23T08:41:03;32.40;99.90
31575;DHT22;18182;1.328;103.810;2023-03-23T08:43:30;32.50;99.90
31575;DHT22;18182;1.328;103.810;2023-03-23T08:45:58;32.50;99.90
31575;DHT22;18182;1.328;103.810;2023-03-23T08:48:24;32.50;99.90
31575;DHT22;18182;1.328;103.810;2023-03-23T08:50:50;32.50;99.90
31575;DHT22;18182;1.328;103.810;2023-03-23T08:53:18;32.60;99.90
31575;DHT22;18182;1.328;103.810;2023-03-23T08:55:44;32.60;99.90
31575;DHT22;18182;1.328;103.810;2023-03-23T08:58:10;32.60;99.90
31575;DHT22;18182;1.328;103.810;2023-03-23T09:00:36;32.60;99.90
31575;DHT22;18182;1.328;103.810;2023-03-23T09:03:02;32.70;99.90
31575;DHT22;18182;1.328;103.810;2023-03-23T09:05:30;32.60;99.90
31575;DHT22;18182;1.328;103.810;2023-03-23T09:07:56;32.50;99.90
31575;DHT22;18182;1.328;103.810;2023-03-23T09:10:25;32.50;99.90
31575;DHT22;18182;1.328;103.810;2023-03-23T09:12:51;32.30;99.90
31575;DHT22;18182;1.328;103.810;2023-03-23T09:15:18;32.30;99.90
31575;DHT22;18182;1.328;103.810;2023-03-23T09:17:45;32.10;99.90
31575;DHT22;18182;1.328;103.810;2023-03-23T09:20:12;32.00;99.90
31575;DHT22;18182;1.328;103.810;2023-03-23T09:22:45;31.90;99.90
31575;DHT22;18182;1.328;103.810;2023-03-23T09:25:13;31.90;99.90
31575;DHT22;18182;1.328;103.810;2023-03-23T09:27:40;31.70;99.90
31575;DHT22;18182;1.328;103.810;2023-03-23T09:30:07;31.70;99.90
31575;DHT22;18182;1.328;103.810;2023-03-23T09:32:36;31.70;99.90
31575;DHT22;18182;1.328;103.810;2023-03-23T09:35:03;31.70;99.90
31575;DHT22;18182;1.328;103.810;2023-03-23T09:37:29;31.60;99.90
31575;DHT22;18182;1.328;103.810;2023-03-23T09:39:56;31.60;99.90
31575;DHT22;18182;1.328;103.810;2023-03-23T09:50:02;31.50;99.90
31575;DHT22;18182;1.328;103.810;2023-03-23T09:52:34;31.50;99.90
31575;DHT22;18182;1.328;103.810;2023-03-23T09:55:03;31.50;99.90
31575;DHT22;18182;1.328;103.810;2023-03-23T09:57:32;31.40;99.90
31575;DHT22;18182;1.328;103.810;2023-03-23T10:02:43;31.40;99.90
31575;DHT22;18182;1.328;103.810;2023-03-23T10:07:52;31.20;99.90
31575;DHT22;18182;1.328;103.810;2023-03-23T10:10:18;31.20;99.90
31575;DHT22;18182;1.328;103.810;2023-03-23T10:12:49;31.20;99.90
31575;DHT22;18182;1.328;103.810;2023-03-23T10:17:47;31.30;99.90
31575;DHT22;18182;1.328;103.810;2023-03-23T10:20:19;31.30;99.90
31575;DHT22;18182;1.328;103.810;2023-03-23T10:22:52;31.20;99.90
31575;DHT22;18182;1.328;103.810;2023-03-23T10:25:21;31.20;99.90
31575;DHT22;18182;1.328;103.810;2023-03-23T10:30:31;31.10;99.90
31575;DHT22;18182;1.328;103.810;2023-03-23T10:33:00;30.90;99.90
31575;DHT22;18182;1.328;103.810;2023-03-23T10:35:33;30.90;99.90
31575;DHT22;18182;1.328;103.810;2023-03-23T10:38:02;30.80;99.90
31575;DHT22;18182;1.328;103.810;2023-03-23T10:40:29;30.60;99.90
31575;DHT22;18182;1.328;103.810;2023-03-23T10:42:59;30.60;99.90
31575;DHT22;18182;1.328;103.810;2023-03-23T10:45:26;30.50;99.90
31575;DHT22;18182;1.328;103.810;2023-03-23T10:50:30;30.30;99.90
31575;DHT22;18182;1.328;103.810;2023-03-23T10:52:58;30.30;99.90
31575;DHT22;18182;1.328;103.810;2023-03-23T10:55:35;30.30;99.90
31575;DHT22;18182;1.328;103.810;2023-03-23T10:58:04;30.30;99.90
31575;DHT22;18182;1.328;103.810;2023-03-23T11:00:30;30.20;99.90
31575;DHT22;18182;1.328;103.810;2023-03-23T11:05:32;30.20;99.90
31575;DHT22;18182;1.328;103.810;2023-03-23T11:07:59;30.30;99.90
31575;DHT22;18182;1.328;103.810;2023-03-23T11:10:37;30.20;99.90
31575;DHT22;18182;1.328;103.810;2023-03-23T11:13:03;30.20;99.90
31575;DHT22;18182;1.328;103.810;2023-03-23T11:15:38;30.10;99.90
31575;DHT22;18182;1.328;103.810;2023-03-23T11:18:11;30.10;99.90
31575;DHT22;18182;1.328;103.810;2023-03-23T11:20:43;30.10;99.90
31575;DHT22;18182;1.328;103.810;2023-03-23T11:23:22;30.10;99.90
31575;DHT22;18182;1.328;103.810;2023-03-23T11:28:42;30.20;99.90
31575;DHT22;18182;1.328;103.810;2023-03-23T11:31:08;30.20;99.90
31575;DHT22;18182;1.328;103.810;2023-03-23T11:33:36;30.20;99.90
31575;DHT22;18182;1.328;103.810;2023-03-23T11:36:05;30.10;99.90
31575;DHT22;18182;1.328;103.810;2023-03-23T11:38:31;30.20;99.90
31575;DHT22;18182;1.328;103.810;2023-03-23T11:40:58;30.10;99.90
31575;DHT22;18182;1.328;103.810;2023-03-23T11:43:25;30.10;99.90
31575;DHT22;18182;1.328;103.810;2023-03-23T11:54:09;30.10;99.90
31575;DHT22;18182;1.328;103.810;2023-03-23T11:56:39;30.10;99.90
31575;DHT22;18182;1.328;103.810;2023-03-23T11:59:09;30.10;99.90
31575;DHT22;18182;1.328;103.810;2023-03-23T12:04:15;30.10;99.90
31575;DHT22;18182;1.328;103.810;2023-03-23T12:12:08;30.10;99.90
31575;DHT22;18182;1.328;103.810;2023-03-23T12:14:53;30.10;99.90
31575;DHT22;18182;1.328;103.810;2023-03-23T12:20:39;30.10;99.90
31575;DHT22;18182;1.328;103.810;2023-03-23T12:30:25;29.90;99.90
31575;DHT22;18182;1.328;103.810;2023-03-23T12:40:19;29.80;99.90
31575;DHT22;18182;1.328;103.810;2023-03-23T12:45:21;29.80;99.90
31575;DHT22;18182;1.328;103.810;2023-03-23T12:52:50;29.80;99.90
31575;DHT22;18182;1.328;103.810;2023-03-23T12:58:02;29.80;99.90
31575;DHT22;18182;1.328;103.810;2023-03-23T13:06:06;29.80;99.90
31575;DHT22;18182;1.328;103.810;2023-03-23T13:08:36;29.90;99.90
31575;DHT22;18182;1.328;103.810;2023-03-23T13:11:04;29.90;99.90
31575;DHT22;18182;1.328;103.810;2023-03-23T13:16:50;29.90;99.90
31575;DHT22;18182;1.328;103.810;2023-03-23T13:22:21;29.90;99.90
31575;DHT22;18182;1.328;103.810;2023-03-23T13:24:28;30.00;99.90
31575;DHT22;18182;1.328;103.810;2023-03-23T13:26:55;29.90;99.90
31575;DHT22;18182;1.328;103.810;2023-03-23T13:29:23;29.90;99.90
31575;DHT22;18182;1.328;103.810;2023-03-23T13:32:04;29.90;99.90
31575;DHT22;18182;1.328;103.810;2023-03-23T13:34:31;29.90;99.90
31575;DHT22;18182;1.328;103.810;2023-03-23T13:36:58;29.80;99.90
31575;DHT22;18182;1.328;103.810;2023-03-23T13:39:35;29.80;99.90
31575;DHT22;18182;1.328;103.810;2023-03-23T13:49:50;29.70;99.90
31575;DHT22;18182;1.328;103.810;2023-03-23T13:52:21;29.70;99.90
31575;DHT22;18182;1.328;103.810;2023-03-23T13:54:48;29.60;99.90
31575;DHT22;18182;1.328;103.810;2023-03-23T13:57:33;29.60;99.90
31575;DHT22;18182;1.328;103.810;2023-03-23T14:00:24;29.70;99.90
31575;DHT22;18182;1.328;103.810;2023-03-23T14:03:14;29.70;99.90
31575;DHT22;18182;1.328;103.810;2023-03-23T14:05:43;29.70;99.90
31575;DHT22;18182;1.328;103.810;2023-03-23T14:11:19;29.70;99.90
31575;DHT22;18182;1.328;103.810;2023-03-23T14:18:51;29.70;99.90
31575;DHT22;18182;1.328;103.810;2023-03-23T14:21:21;29.70;99.90
31575;DHT22;18182;1.328;103.810;2023-03-23T14:23:48;29.70;99.90
31575;DHT22;18182;1.328;103.810;2023-03-23T14:26:19;29.60;99.90
31575;DHT22;18182;1.328;103.810;2023-03-23T14:28:49;29.60;99.90
31575;DHT22;18182;1.328;103.810;2023-03-23T14:31:22;29.60;99.90
31575;DHT22;18182;1.328;103.810;2023-03-23T14:33:49;29.50;99.90
31575;DHT22;18182;1.328;103.810;2023-03-23T14:36:22;29.60;99.90
31575;DHT22;18182;1.328;103.810;2023-03-23T14:39:04;29.60;99.90
31575;DHT22;18182;1.328;103.810;2023-03-23T14:41:35;29.60;99.90
31575;DHT22;18182;1.328;103.810;2023-03-23T14:44:02;29.60;99.90
31575;DHT22;18182;1.328;103.810;2023-03-23T14:46:29;29.60;99.90
31575;DHT22;18182;1.328;103.810;2023-03-23T14:48:56;29.60;99.90
31575;DHT22;18182;1.328;103.810;2023-03-23T14:51:25;29.60;99.90
31575;DHT22;18182;1.328;103.810;2023-03-23T14:53:52;29.60;99.90
31575;DHT22;18182;1.328;103.810;2023-03-23T14:56:19;29.60;99.90
31575;DHT22;18182;1.328;103.810;2023-03-23T14:58:48;29.60;99.90
31575;DHT22;18182;1.328;103.810;2023-03-23T15:01:19;29.60;99.90
31575;DHT22;18182;1.328;103.810;2023-03-23T15:03:55;29.60;99.90
31575;DHT22;18182;1.328;103.810;2023-03-23T15:06:22;29.60;99.90
31575;DHT22;18182;1.328;103.810;2023-03-23T15:08:51;29.50;99.90
31575;DHT22;18182;1.328;103.810;2023-03-23T15:13:52;29.50;99.90
31575;DHT22;18182;1.328;103.810;2023-03-23T15:18:50;29.50;99.90
31575;DHT22;18182;1.328;103.810;2023-03-23T15:21:21;29.50;99.90
31575;DHT22;18182;1.328;103.810;2023-03-23T15:23:48;29.40;99.90
31575;DHT22;18182;1.328;103.810;2023-03-23T15:28:49;29.30;99.90
31575;DHT22;18182;1.328;103.810;2023-03-23T15:31:15;29.40;99.90
31575;DHT22;18182;1.328;103.810;2023-03-23T15:33:41;29.40;99.90
31575;DHT22;18182;1.328;103.810;2023-03-23T15:36:09;29.40;99.90
31575;DHT22;18182;1.328;103.810;2023-03-23T15:38:42;29.40;99.90
31575;DHT22;18182;1.328;103.810;2023-03-23T15:41:20;29.50;99.90
31575;DHT22;18182;1.328;103.810;2023-03-23T15:43:54;29.50;99.90
31575;DHT22;18182;1.328;103.810;2023-03-23T15:46:25;29.40;99.90
31575;DHT22;18182;1.328;103.810;2023-03-23T15:48:53;29.40;99.90
31575;DHT22;18182;1.328;103.810;2023-03-23T15:51:24;29.30;99.90
31575;DHT22;18182;1.328;103.810;2023-03-23T15:53:52;29.30;99.90
31575;DHT22;18182;1.328;103.810;2023-03-23T15:56:18;29.40;99.90
31575;DHT22;18182;1.328;103.810;2023-03-23T15:58:45;29.40;99.90
31575;DHT22;18182;1.328;103.810;2023-03-23T16:01:12;29.30;99.90
31575;DHT22;18182;1.328;103.810;2023-03-23T16:03:49;29.30;99.90
31575;DHT22;18182;1.328;103.810;2023-03-23T16:06:17;29.20;99.90
31575;DHT22;18182;1.328;103.810;2023-03-23T16:08:44;29.30;99.90
31575;DHT22;18182;1.328;103.810;2023-03-23T16:11:11;29.20;99.90
31575;DHT22;18182;1.328;103.810;2023-03-23T16:13:38;29.20;99.90
31575;DHT22;18182;1.328;103.810;2023-03-23T16:16:04;29.20;99.90
31575;DHT22;18182;1.328;103.810;2023-03-23T16:18:31;29.30;99.90
31575;DHT22;18182;1.328;103.810;2023-03-23T16:20:57;29.20;99.90
31575;DHT22;18182;1.328;103.810;2023-03-23T16:23:26;29.20;99.90
31575;DHT22;18182;1.328;103.810;2023-03-23T16:25:52;29.20;99.90
31575;DHT22;18182;1.328;103.810;2023-03-23T16:28:18;29.20;99.90
31575;DHT22;18182;1.328;103.810;2023-03-23T16:30:45;29.10;99.90
31575;DHT22;18182;1.328;103.810;2023-03-23T16:33:12;29.20;99.90
31575;DHT22;18182;1.328;103.810;2023-03-23T16:35:38;29.20;99.90
31575;DHT22;18182;1.328;103.810;2023-03-23T16:38:04;29.20;99.90
31575;DHT22;18182;1.328;103.810;2023-03-23T16:40:31;29.20;99.90
31575;DHT22;18182;1.328;103.810;2023-03-23T16:42:58;29.30;99.90
31575;DHT22;18182;1.328;103.810;2023-03-23T16:45:24;29.30;99.90
31575;DHT22;18182;1.328;103.810;2023-03-23T16:47:51;29.30;99.90
31575;DHT22;18182;1.328;103.810;2023-03-23T16:50:20;29.30;99.90
31575;DHT22;18182;1.328;103.810;2023-03-23T16:52:46;29.20;99.90
31575;DHT22;18182;1.328;103.810;2023-03-23T16:55:14;29.30;99.90
31575;DHT22;18182;1.328;103.810;2023-03-23T16:57:41;29.30;99.90
31575;DHT22;18182;1.328;103.810;2023-03-23T17:00:12;29.20;99.90
31575;DHT22;18182;1.328;103.810;2023-03-23T17:02:45;29.30;99.90
31575;DHT22;18182;1.328;103.810;2023-03-23T17:05:12;29.30;99.90
31575;DHT22;18182;1.328;103.810;2023-03-23T17:07:39;29.30;99.90
31575;DHT22;18182;1.328;103.810;2023-03-23T17:10:06;29.30;99.90
31575;DHT22;18182;1.328;103.810;2023-03-23T17:12:33;29.30;99.90
31575;DHT22;18182;1.328;103.810;2023-03-23T17:14:59;29.30;99.90
31575;DHT22;18182;1.328;103.810;2023-03-23T17:17:25;29.30;99.90
31575;DHT22;18182;1.328;103.810;2023-03-23T17:19:52;29.30;99.90
31575;DHT22;18182;1.328;103.810;2023-03-23T17:22:18;29.30;99.90
31575;DHT22;18182;1.328;103.810;2023-03-23T17:24:44;29.30;99.90
31575;DHT22;18182;1.328;103.810;2023-03-23T17:27:13;29.20;99.90